Great Lakes, Illinois
Current Conditions -  °F | °C
As of 12:55 AM on Sunday 26 Oct 2014 (Local Time) from KUGN Reporting Station
Clear Clear  
Wind Chill: 50°   Ceiling: Unl
Heat Index: 50°   Visibility: 10mi
Dew Point: 28°   Wind: 6mph
Humidity: 43%   Direction: 280°W
Pressure: 29.96"   Gusts: NA
Location:  42.31°N, 87.85°W
Report Text: KUGN 260555Z AUTO 28005KT 10SM CLR 10/M02 A2996 RMK AO2 SLP142 T01001022 10150 20100 402110100 53001
Loading
Personal Weather Stations






























Interactive Weather Map
Tropical Storm Tracking
New forecast layout! Learn more

10-Day Weather Forecast

Advertisements
Track Severe Weather on mobile